createdAt,value
2018-09-09T00:00:53.036Z,19.80
2018-09-09T00:03:22.241Z,21.33
2018-09-09T00:05:51.463Z,20.77
2018-09-09T00:08:20.730Z,27.53
2018-09-09T00:10:49.932Z,20.90
2018-09-09T00:13:19.219Z,28.17
2018-09-09T00:15:48.435Z,24.83
2018-09-09T00:18:17.717Z,22.03
2018-09-09T00:20:46.941Z,31.23
2018-09-09T00:23:16.253Z,21.53
2018-09-09T00:25:45.491Z,22.60
2018-09-09T00:28:14.785Z,24.73
2018-09-09T00:30:44.034Z,19.93
2018-09-09T00:33:13.292Z,23.33
2018-09-09T00:35:42.543Z,22.30
2018-09-09T00:38:11.823Z,21.80
2018-09-09T00:40:41.110Z,23.70
2018-09-09T00:43:11.124Z,20.60
2018-09-09T00:45:40.562Z,22.67
2018-09-09T00:48:09.831Z,24.10
2018-09-09T00:50:44.536Z,24.90
2018-09-09T00:53:18.839Z,31.13
2018-09-09T00:55:48.109Z,35.90
2018-09-09T00:58:17.374Z,31.40
2018-09-09T01:01:18.403Z,30.67
2018-09-09T01:03:48.215Z,33.83
2018-09-09T01:06:17.440Z,26.20
2018-09-09T01:08:46.666Z,20.57
2018-09-09T01:11:15.859Z,23.17
2018-09-09T01:13:45.135Z,21.60
2018-09-09T01:16:14.379Z,19.83
2018-09-09T01:18:43.816Z,18.30
2018-09-09T01:21:13.029Z,21.30
2018-09-09T01:23:42.274Z,22.03
2018-09-09T01:26:11.456Z,22.70
2018-09-09T01:28:40.736Z,18.90
2018-09-09T01:31:09.976Z,20.07
2018-09-09T01:33:39.230Z,17.33
2018-09-09T01:36:08.411Z,20.87
2018-09-09T01:38:40.080Z,28.83
2018-09-09T01:41:18.952Z,30.10
2018-09-09T01:43:49.830Z,27.23
2018-09-09T01:46:32.788Z,25.87
2018-09-09T01:49:07.164Z,26.40
2018-09-09T01:54:14.878Z,22.83
2018-09-09T01:59:27.559Z,20.47
2018-09-09T02:02:05.967Z,18.50
2018-09-09T02:04:39.752Z,22.07
2018-09-09T02:07:11.723Z,17.30
2018-09-09T02:09:44.577Z,20.73
2018-09-09T02:12:14.854Z,17.87
2018-09-09T02:14:46.035Z,18.53
2018-09-09T02:17:17.438Z,18.67
2018-09-09T02:22:26.103Z,18.00
2018-09-09T02:24:55.362Z,15.20
2018-09-09T02:27:24.907Z,18.70
2018-09-09T02:29:54.115Z,19.67
2018-09-09T02:32:23.982Z,17.80
2018-09-09T02:34:53.178Z,20.23
2018-09-09T02:37:22.440Z,17.00
2018-09-09T02:39:51.710Z,17.00
2018-09-09T02:42:20.949Z,17.53
2018-09-09T02:44:50.188Z,17.47
2018-09-09T02:47:19.436Z,18.20
2018-09-09T02:49:48.730Z,15.27
2018-09-09T02:52:18.099Z,16.87
2018-09-09T02:54:47.317Z,16.40
2018-09-09T02:57:16.562Z,17.70
2018-09-09T02:59:45.773Z,22.40
2018-09-09T03:02:14.959Z,18.77
2018-09-09T03:04:44.200Z,14.97
2018-09-09T03:07:13.425Z,20.63
2018-09-09T03:09:42.676Z,16.73
2018-09-09T03:12:11.887Z,18.13
2018-09-09T03:14:41.139Z,19.07
2018-09-09T03:17:10.384Z,22.93
2018-09-09T03:19:39.592Z,18.80
2018-09-09T03:22:08.873Z,17.50
2018-09-09T03:24:38.094Z,16.73
2018-09-09T03:27:07.351Z,18.43
2018-09-09T03:29:36.535Z,17.20
2018-09-09T03:32:05.820Z,19.63
2018-09-09T03:34:35.120Z,19.83
2018-09-09T03:37:04.391Z,24.90
2018-09-09T03:39:33.623Z,18.67
2018-09-09T03:42:02.832Z,22.10
2018-09-09T03:44:32.059Z,17.23
2018-09-09T03:47:01.269Z,18.70
2018-09-09T03:49:30.526Z,16.37
2018-09-09T03:51:59.759Z,18.77
2018-09-09T03:54:29.196Z,17.80
2018-09-09T03:56:58.402Z,16.00
2018-09-09T03:59:27.587Z,16.07
2018-09-09T04:01:56.847Z,18.67
2018-09-09T04:04:26.052Z,15.57
2018-09-09T04:06:55.287Z,17.43
2018-09-09T04:09:24.466Z,14.50
2018-09-09T04:11:53.695Z,16.03
2018-09-09T04:14:23.071Z,17.83
2018-09-09T04:16:52.315Z,17.00
2018-09-09T04:19:21.591Z,17.20
2018-09-09T04:21:52.284Z,15.07
2018-09-09T04:24:23.095Z,17.63
2018-09-09T04:26:52.353Z,18.10
2018-09-09T04:29:21.634Z,17.47
2018-09-09T04:31:50.858Z,16.17
2018-09-09T04:34:20.135Z,13.70
2018-09-09T04:36:49.365Z,19.73
2018-09-09T04:39:18.655Z,16.63
2018-09-09T04:41:47.880Z,16.80
2018-09-09T04:44:17.118Z,16.10
2018-09-09T04:46:46.356Z,17.70
2018-09-09T04:49:15.545Z,17.63
2018-09-09T04:51:44.798Z,15.90
2018-09-09T04:54:14.061Z,16.60
2018-09-09T04:56:43.348Z,17.00
2018-09-09T04:59:12.651Z,18.17
2018-09-09T05:01:41.915Z,17.47
2018-09-09T05:04:11.120Z,20.30
2018-09-09T05:06:40.815Z,18.07
2018-09-09T05:09:10.294Z,18.83
2018-09-09T05:11:41.324Z,19.10
2018-09-09T05:14:10.590Z,20.60
2018-09-09T05:16:39.840Z,16.73
2018-09-09T05:19:09.105Z,18.33
2018-09-09T05:21:38.599Z,18.43
2018-09-09T05:24:07.885Z,20.30
2018-09-09T05:26:37.602Z,25.30
2018-09-09T05:29:07.143Z,18.40
2018-09-09T05:31:36.439Z,18.80
2018-09-09T05:34:08.592Z,19.73
2018-09-09T05:36:37.878Z,18.50
2018-09-09T05:39:10.186Z,20.10
2018-09-09T05:41:39.499Z,26.47
2018-09-09T05:44:08.709Z,22.93
2018-09-09T05:46:37.987Z,19.73
2018-09-09T05:49:08.473Z,18.03
2018-09-09T05:51:38.059Z,18.90
2018-09-09T05:54:07.313Z,22.17
2018-09-09T05:56:49.159Z,18.90
2018-09-09T05:59:19.683Z,17.60
2018-09-09T06:01:49.010Z,16.73
2018-09-09T06:04:18.277Z,16.50
2018-09-09T06:06:47.603Z,17.73
2018-09-09T06:12:19.664Z,14.50
2018-09-09T06:14:54.551Z,12.77
2018-09-09T06:17:28.728Z,11.43
2018-09-09T06:20:01.846Z,13.90
2018-09-09T06:22:36.298Z,10.40
2018-09-09T06:25:05.968Z,13.53
2018-09-09T06:27:35.894Z,10.93
2018-09-09T06:30:05.443Z,11.83
2018-09-09T06:32:34.980Z,9.80
2018-09-09T06:35:04.423Z,9.33
2018-09-09T06:37:40.095Z,9.90
2018-09-09T06:40:09.806Z,12.77
2018-09-09T06:42:39.783Z,9.80
2018-09-09T06:45:18.888Z,10.10
2018-09-09T06:47:50.701Z,8.57
2018-09-09T06:50:21.764Z,8.30
2018-09-09T06:52:54.463Z,11.23
2018-09-09T06:55:24.640Z,8.53
2018-09-09T06:57:54.674Z,9.10
2018-09-09T07:00:25.162Z,7.93
2018-09-09T07:02:57.796Z,7.40
2018-09-09T07:05:34.116Z,7.63
2018-09-09T07:08:03.496Z,7.27
2018-09-09T07:10:32.754Z,7.00
2018-09-09T07:13:02.190Z,6.80
2018-09-09T07:15:32.274Z,7.13
2018-09-09T07:18:05.926Z,7.73
2018-09-09T07:20:36.459Z,7.60
2018-09-09T07:23:05.881Z,6.67
2018-09-09T07:25:43.546Z,6.40
2018-09-09T07:28:23.315Z,7.20
2018-09-09T07:30:53.592Z,7.60
2018-09-09T07:33:22.888Z,7.40
2018-09-09T07:35:52.092Z,8.10
2018-09-09T07:38:21.351Z,6.97
2018-09-09T07:40:51.459Z,6.80
2018-09-09T07:43:20.805Z,8.63
2018-09-09T07:45:50.187Z,7.43
2018-09-09T07:48:19.588Z,6.10
2018-09-09T07:50:48.813Z,7.87
2018-09-09T07:53:18.125Z,8.37
2018-09-09T07:55:47.320Z,6.57
2018-09-09T07:58:16.560Z,5.77
2018-09-09T08:00:45.788Z,7.33
2018-09-09T08:03:14.995Z,6.20
2018-09-09T08:05:44.255Z,6.23
2018-09-09T08:08:13.495Z,7.10
2018-09-09T08:10:42.719Z,5.20
2018-09-09T08:13:11.952Z,7.40
2018-09-09T08:15:41.111Z,6.63
2018-09-09T08:18:10.318Z,7.10
2018-09-09T08:20:39.546Z,10.27
2018-09-09T08:23:08.767Z,6.27
2018-09-09T08:25:38.006Z,7.23
2018-09-09T08:28:07.419Z,6.23
2018-09-09T08:30:36.673Z,6.57
2018-09-09T08:33:06.016Z,6.07
2018-09-09T08:35:35.208Z,5.70
2018-09-09T08:38:04.428Z,6.20
2018-09-09T08:40:33.725Z,6.90
2018-09-09T08:43:02.945Z,5.43
2018-09-09T08:45:32.181Z,8.00
2018-09-09T08:48:02.440Z,8.40
2018-09-09T08:50:31.700Z,6.33
2018-09-09T08:53:01.030Z,6.57
2018-09-09T08:55:30.334Z,6.03
2018-09-09T08:57:59.619Z,6.23
2018-09-09T09:00:28.865Z,6.60
2018-09-09T09:02:58.088Z,5.53
2018-09-09T09:05:27.496Z,6.90
2018-09-09T09:07:56.844Z,5.90
2018-09-09T09:10:25.952Z,8.30
2018-09-09T09:12:55.187Z,7.47
2018-09-09T09:15:24.442Z,6.00
2018-09-09T09:17:53.684Z,9.47
2018-09-09T09:20:22.948Z,5.87
2018-09-09T09:22:52.184Z,7.70
2018-09-09T09:25:21.446Z,5.47
2018-09-09T09:27:50.631Z,6.43
2018-09-09T09:30:19.882Z,6.70
2018-09-09T09:32:50.640Z,6.10
2018-09-09T09:35:20.322Z,5.53
2018-09-09T09:37:49.548Z,5.40
2018-09-09T09:40:18.778Z,6.10
2018-09-09T09:42:48.012Z,5.70
2018-09-09T09:45:18.309Z,6.00
2018-09-09T09:47:47.557Z,7.57
2018-09-09T09:50:16.793Z,6.97
2018-09-09T09:52:46.018Z,6.17
2018-09-09T09:55:15.813Z,4.40
2018-09-09T09:57:45.157Z,5.03
2018-09-09T10:00:19.664Z,5.07
2018-09-09T10:02:49.200Z,5.73
2018-09-09T10:05:18.457Z,8.83
2018-09-09T10:07:47.691Z,6.53
2018-09-09T10:10:17.219Z,4.70
2018-09-09T10:12:46.506Z,5.50
2018-09-09T10:15:15.790Z,5.10
2018-09-09T10:17:45.014Z,4.60
2018-09-09T10:20:14.437Z,5.13
2018-09-09T10:22:43.711Z,4.40
2018-09-09T10:25:13.208Z,4.83
2018-09-09T10:27:42.714Z,4.40
2018-09-09T10:30:12.092Z,5.00
2018-09-09T10:32:41.695Z,6.40
2018-09-09T10:35:11.296Z,4.50
2018-09-09T10:37:40.471Z,7.23
2018-09-09T10:40:09.889Z,6.20
2018-09-09T10:42:39.089Z,5.20
2018-09-09T10:45:08.797Z,5.73
2018-09-09T10:47:38.011Z,4.37
2018-09-09T10:50:07.819Z,4.23
2018-09-09T10:52:37.114Z,4.43
2018-09-09T10:55:06.492Z,4.90
2018-09-09T10:57:35.831Z,4.20
2018-09-09T11:00:05.252Z,5.20
2018-09-09T11:02:34.679Z,5.70
2018-09-09T11:05:04.040Z,7.43
2018-09-09T11:07:33.406Z,4.00
2018-09-09T11:10:02.706Z,4.30
2018-09-09T11:12:32.779Z,4.67
2018-09-09T11:15:02.871Z,4.17
2018-09-09T11:17:32.395Z,4.40
2018-09-09T11:20:01.721Z,5.47
2018-09-09T11:22:31.009Z,4.50
2018-09-09T11:25:00.262Z,4.27
2018-09-09T11:27:29.567Z,4.57
2018-09-09T11:29:58.900Z,4.90
2018-09-09T11:32:28.503Z,4.63
2018-09-09T11:34:57.767Z,5.80
2018-09-09T11:37:27.167Z,7.10
2018-09-09T11:39:56.511Z,4.13
2018-09-09T11:42:25.789Z,4.23
2018-09-09T11:44:55.139Z,4.90
2018-09-09T11:47:24.441Z,5.30
2018-09-09T11:49:53.768Z,4.83
2018-09-09T11:52:24.150Z,4.77
2018-09-09T11:54:53.458Z,6.70
2018-09-09T11:57:22.863Z,4.50
2018-09-09T11:59:53.668Z,4.23
2018-09-09T12:02:23.303Z,5.00
2018-09-09T12:04:52.714Z,4.87
2018-09-09T12:07:22.039Z,4.90
2018-09-09T12:10:05.717Z,4.67
2018-09-09T12:12:34.997Z,5.57
2018-09-09T12:15:04.340Z,5.23
2018-09-09T12:17:33.651Z,5.23
2018-09-09T12:20:02.955Z,5.57
2018-09-09T12:22:32.244Z,9.90
2018-09-09T12:25:01.501Z,4.13
2018-09-09T12:27:31.008Z,4.73
2018-09-09T12:30:00.358Z,5.43
2018-09-09T12:32:29.770Z,4.47
2018-09-09T12:34:59.050Z,5.07
2018-09-09T12:37:28.369Z,4.63
2018-09-09T12:39:57.715Z,6.07
2018-09-09T12:45:13.332Z,4.30
2018-09-09T12:47:47.732Z,5.23
2018-09-09T12:50:16.955Z,7.23
2018-09-09T12:52:46.268Z,4.80
2018-09-09T12:55:15.554Z,4.20
2018-09-09T12:57:45.127Z,5.27
2018-09-09T13:00:14.643Z,5.50
2018-09-09T13:02:44.019Z,4.40
2018-09-09T13:05:13.348Z,4.73
2018-09-09T13:07:43.032Z,4.40
2018-09-09T13:10:12.278Z,7.80
2018-09-09T13:12:46.672Z,5.60
2018-09-09T13:15:15.968Z,5.17
2018-09-09T13:17:45.204Z,4.33
2018-09-09T13:20:14.580Z,4.97
2018-09-09T13:22:45.283Z,5.37
2018-09-09T13:25:14.677Z,5.20
2018-09-09T13:27:44.196Z,13.50
2018-09-09T13:30:13.526Z,4.33
2018-09-09T13:32:42.881Z,3.87
2018-09-09T13:35:12.199Z,4.70
2018-09-09T13:37:41.566Z,6.20
2018-09-09T13:40:11.330Z,5.10
2018-09-09T13:42:40.612Z,5.77
2018-09-09T13:45:09.981Z,4.90
2018-09-09T13:47:39.257Z,4.70
2018-09-09T13:50:08.580Z,6.43
2018-09-09T13:52:37.980Z,4.30
2018-09-09T13:55:08.109Z,5.10
2018-09-09T13:57:37.561Z,4.63
2018-09-09T14:00:06.902Z,4.40
2018-09-09T14:02:36.275Z,5.07
2018-09-09T14:05:05.618Z,4.50
2018-09-09T14:07:34.831Z,4.80
2018-09-09T14:10:04.084Z,6.67
2018-09-09T14:12:33.360Z,4.83
2018-09-09T14:15:02.629Z,4.23
2018-09-09T14:17:31.908Z,4.70
2018-09-09T14:20:01.172Z,5.77
2018-09-09T14:22:30.531Z,4.50
2018-09-09T14:24:59.693Z,5.40
2018-09-09T14:27:29.438Z,6.53
2018-09-09T14:29:58.667Z,7.90
2018-09-09T14:32:27.966Z,4.93
2018-09-09T14:34:57.452Z,4.63
2018-09-09T14:37:26.671Z,5.53
2018-09-09T14:39:56.262Z,4.83
2018-09-09T14:42:25.490Z,4.97
2018-09-09T14:44:54.713Z,5.57
2018-09-09T14:47:24.014Z,5.10
2018-09-09T14:49:53.277Z,4.47
2018-09-09T14:52:22.843Z,5.10
2018-09-09T14:54:52.063Z,5.13
2018-09-09T14:57:21.242Z,4.63
2018-09-09T14:59:50.597Z,4.40
2018-09-09T15:02:20.004Z,5.40
2018-09-09T15:04:49.455Z,5.73
2018-09-09T15:07:18.703Z,5.17
2018-09-09T15:09:47.962Z,4.23
2018-09-09T15:12:17.543Z,5.00
2018-09-09T15:14:46.739Z,5.07
2018-09-09T15:17:17.695Z,4.60
2018-09-09T15:19:46.888Z,4.97
2018-09-09T15:22:16.441Z,5.47
2018-09-09T15:24:46.036Z,4.53
2018-09-09T15:27:15.560Z,7.03
2018-09-09T15:29:44.858Z,5.00
2018-09-09T15:32:15.019Z,4.33
2018-09-09T15:34:44.534Z,4.83
2018-09-09T15:37:13.834Z,4.73
2018-09-09T15:39:43.156Z,4.97
2018-09-09T15:42:12.496Z,4.80
2018-09-09T15:44:42.847Z,9.93
2018-09-09T15:47:12.847Z,4.67
2018-09-09T15:49:42.753Z,4.60
2018-09-09T15:52:12.111Z,6.50
2018-09-09T15:54:41.350Z,5.73
2018-09-09T15:57:11.120Z,4.57
2018-09-09T15:59:41.305Z,4.40
2018-09-09T16:02:10.804Z,4.37
2018-09-09T16:04:40.115Z,4.03
2018-09-09T16:07:10.322Z,4.83
2018-09-09T16:09:41.614Z,4.13
2018-09-09T16:12:11.623Z,4.00
2018-09-09T16:14:40.903Z,4.67
2018-09-09T16:17:10.094Z,3.80
2018-09-09T16:19:39.331Z,4.80
2018-09-09T16:22:08.522Z,4.10
2018-09-09T16:24:37.796Z,5.33
2018-09-09T16:27:07.127Z,3.70
2018-09-09T16:29:36.544Z,4.40
2018-09-09T16:32:05.798Z,6.83
2018-09-09T16:34:35.595Z,4.47
2018-09-09T16:37:04.895Z,3.13
2018-09-09T16:39:34.215Z,3.80
2018-09-09T16:42:03.443Z,4.20
2018-09-09T16:44:33.564Z,4.57
2018-09-09T16:47:02.976Z,3.30
2018-09-09T16:49:32.618Z,4.70
2018-09-09T16:52:02.108Z,4.90
2018-09-09T16:54:31.584Z,3.77
2018-09-09T16:57:01.217Z,4.60
2018-09-09T16:59:30.907Z,4.17
2018-09-09T17:02:01.003Z,5.60
2018-09-09T17:04:30.818Z,5.97
2018-09-09T17:07:00.509Z,4.70
2018-09-09T17:09:30.194Z,4.47
2018-09-09T17:11:59.714Z,4.40
2018-09-09T17:14:29.852Z,6.00
2018-09-09T17:17:00.939Z,4.43
2018-09-09T17:19:30.800Z,7.47
2018-09-09T17:22:01.106Z,4.70
2018-09-09T17:24:30.796Z,5.13
2018-09-09T17:27:00.501Z,5.40
2018-09-09T17:29:30.316Z,5.20
2018-09-09T17:32:00.296Z,8.90
2018-09-09T17:34:30.104Z,5.37
2018-09-09T17:36:59.857Z,3.90
2018-09-09T17:39:29.576Z,7.50
2018-09-09T17:41:59.381Z,5.30
2018-09-09T17:44:29.297Z,10.00
2018-09-09T17:46:59.310Z,9.10
2018-09-09T17:49:29.282Z,5.70
2018-09-09T17:51:59.240Z,5.93
2018-09-09T17:54:30.135Z,6.00
2018-09-09T17:57:00.755Z,10.20
2018-09-09T17:59:30.424Z,7.40
2018-09-09T18:02:02.980Z,10.50
2018-09-09T18:04:32.871Z,6.53
2018-09-09T18:07:02.863Z,5.70
2018-09-09T18:09:32.589Z,11.53
2018-09-09T18:12:07.211Z,5.07
2018-09-09T18:14:37.028Z,5.47
2018-09-09T18:17:06.783Z,6.80
2018-09-09T18:19:36.452Z,8.03
2018-09-09T18:22:06.251Z,6.70
2018-09-09T18:24:36.089Z,6.97
2018-09-09T18:27:06.036Z,6.70
2018-09-09T18:29:35.651Z,6.77
2018-09-09T18:32:05.597Z,7.30
2018-09-09T18:34:35.265Z,6.63
2018-09-09T18:37:05.133Z,9.07
2018-09-09T18:39:34.994Z,7.27
2018-09-09T18:42:04.785Z,10.37
2018-09-09T18:44:35.550Z,11.80
2018-09-09T18:47:05.475Z,17.30
2018-09-09T18:49:35.390Z,9.80
2018-09-09T18:52:05.208Z,16.30
2018-09-09T18:54:34.995Z,14.17
2018-09-09T18:57:04.883Z,29.70
2018-09-09T18:59:34.656Z,30.50
2018-09-09T19:02:04.531Z,26.40
2018-09-09T19:04:34.360Z,24.33
2018-09-09T19:07:04.284Z,27.13
2018-09-09T19:09:34.862Z,20.87
2018-09-09T19:12:05.232Z,24.40
2018-09-09T19:14:36.747Z,28.37
2018-09-09T19:17:06.704Z,26.47
2018-09-09T19:19:36.712Z,20.90
2018-09-09T19:22:06.646Z,27.10
2018-09-09T19:24:36.423Z,22.87
2018-09-09T19:27:06.719Z,21.43
2018-09-09T19:29:36.664Z,16.03
2018-09-09T19:32:06.708Z,16.90
2018-09-09T19:34:36.545Z,17.73
2018-09-09T19:37:08.809Z,13.77
2018-09-09T19:39:38.864Z,14.73
2018-09-09T19:42:08.843Z,14.80
2018-09-09T19:44:38.826Z,11.90
2018-09-09T19:47:08.753Z,9.43
2018-09-09T19:49:38.419Z,10.30
2018-09-09T19:52:08.670Z,10.83
2018-09-09T19:54:39.198Z,9.13
2018-09-09T19:57:09.262Z,9.20
2018-09-09T19:59:39.396Z,9.23
2018-09-09T20:02:10.538Z,10.10
2018-09-09T20:04:44.576Z,10.57
2018-09-09T20:07:16.570Z,8.70
2018-09-09T20:09:50.246Z,8.40
2018-09-09T20:12:21.593Z,8.93
2018-09-09T20:14:54.117Z,9.30
2018-09-09T20:17:25.806Z,9.23
2018-09-09T20:19:58.293Z,9.87
2018-09-09T20:22:32.181Z,10.90
2018-09-09T20:25:02.692Z,8.50
2018-09-09T20:27:32.617Z,12.10
2018-09-09T20:30:02.384Z,8.30
2018-09-09T20:32:32.311Z,9.60
2018-09-09T20:35:02.159Z,10.13
2018-09-09T20:37:31.868Z,11.23
2018-09-09T20:42:44.321Z,9.87
2018-09-09T20:45:20.399Z,10.33
2018-09-09T20:47:54.340Z,8.70
2018-09-09T20:50:32.027Z,8.27
2018-09-09T20:53:04.445Z,10.63
2018-09-09T20:55:36.159Z,9.07
2018-09-09T20:58:08.486Z,10.47
2018-09-09T21:00:38.514Z,8.93
2018-09-09T21:03:08.305Z,11.13
2018-09-09T21:05:38.150Z,9.73
2018-09-09T21:08:07.844Z,10.57
2018-09-09T21:10:38.441Z,9.30
2018-09-09T21:13:09.896Z,12.77
2018-09-09T21:15:39.516Z,9.70
2018-09-09T21:18:08.882Z,10.47
2018-09-09T21:20:38.311Z,10.97
2018-09-09T21:23:08.057Z,9.37
2018-09-09T21:25:38.409Z,10.90
2018-09-09T21:28:07.981Z,10.50
2018-09-09T21:30:37.903Z,11.50
2018-09-09T21:33:07.659Z,9.10
2018-09-09T21:35:37.448Z,10.67
2018-09-09T21:38:07.450Z,11.77
2018-09-09T21:40:37.392Z,10.83
2018-09-09T21:43:07.328Z,11.47
2018-09-09T21:45:37.334Z,10.37
2018-09-09T21:48:07.342Z,11.07
2018-09-09T21:50:37.785Z,13.07
2018-09-09T21:53:07.570Z,12.30
2018-09-09T21:55:37.605Z,10.80
2018-09-09T21:58:07.517Z,13.60
2018-09-09T22:00:41.270Z,11.80
2018-09-09T22:03:10.945Z,9.90
2018-09-09T22:05:40.936Z,10.53
2018-09-09T22:08:10.923Z,14.40
2018-09-09T22:10:40.541Z,9.60
2018-09-09T22:13:10.855Z,12.70
2018-09-09T22:15:40.801Z,12.73
2018-09-09T22:18:10.841Z,12.30
2018-09-09T22:20:40.615Z,11.80
2018-09-09T22:23:10.873Z,11.90
2018-09-09T22:25:41.433Z,15.47
2018-09-09T22:28:13.820Z,13.93
2018-09-09T22:30:44.091Z,17.30
2018-09-09T22:33:13.692Z,14.30
2018-09-09T22:35:43.496Z,12.20
2018-09-09T22:38:13.761Z,13.77
2018-09-09T22:40:43.533Z,14.17
2018-09-09T22:43:12.983Z,11.83
2018-09-09T22:45:42.636Z,14.77
2018-09-09T22:48:12.472Z,10.57
2018-09-09T22:50:42.227Z,12.83
2018-09-09T22:53:11.670Z,16.50
2018-09-09T22:55:40.936Z,13.27
2018-09-09T22:58:10.240Z,11.20
2018-09-09T23:00:39.573Z,18.27
2018-09-09T23:03:09.079Z,13.80
2018-09-09T23:05:38.404Z,10.33
2018-09-09T23:08:07.931Z,13.67
2018-09-09T23:10:37.263Z,13.20
2018-09-09T23:13:06.746Z,11.60
2018-09-09T23:15:36.085Z,13.60
2018-09-09T23:18:05.434Z,13.33
2018-09-09T23:20:34.691Z,11.97
2018-09-09T23:23:03.948Z,14.00
2018-09-09T23:25:33.676Z,12.97
2018-09-09T23:28:03.061Z,12.80
2018-09-09T23:30:32.423Z,13.97
2018-09-09T23:33:01.672Z,13.23
2018-09-09T23:35:30.996Z,11.93
2018-09-09T23:38:00.264Z,13.23
2018-09-09T23:40:29.699Z,12.70
2018-09-09T23:42:59.627Z,15.47
2018-09-09T23:45:28.935Z,14.93
2018-09-09T23:47:58.264Z,14.53
2018-09-09T23:50:27.548Z,15.63
2018-09-09T23:52:56.855Z,12.80
2018-09-09T23:55:26.228Z,14.93
2018-09-09T23:57:55.487Z,11.70
